createdAt,value
2019-03-20T00:01:19.365Z,96478.20
2019-03-20T00:03:49.187Z,96480.98
2019-03-20T00:06:19.104Z,96480.29
2019-03-20T00:08:49.006Z,96476.50
2019-03-20T00:11:19.016Z,96477.39
2019-03-20T00:13:48.857Z,96481.66
2019-03-20T00:16:18.769Z,96486.59
2019-03-20T00:18:48.704Z,96479.91
2019-03-20T00:21:18.727Z,96476.91
2019-03-20T00:23:48.622Z,96485.91
2019-03-20T00:26:18.594Z,96503.61
2019-03-20T00:28:48.498Z,96499.38
2019-03-20T00:31:18.450Z,96500.75
2019-03-20T00:33:48.345Z,96487.64
2019-03-20T00:36:18.335Z,96487.52
2019-03-20T00:38:48.178Z,96490.42
2019-03-20T00:41:18.140Z,96485.80
2019-03-20T00:43:49.209Z,96488.34
2019-03-20T00:46:19.211Z,96497.56
2019-03-20T00:48:49.132Z,96496.23
2019-03-20T00:51:18.972Z,96502.67
2019-03-20T00:53:48.800Z,96495.53
2019-03-20T00:56:18.787Z,96491.30
2019-03-20T00:58:48.765Z,96487.64
2019-03-20T01:01:18.718Z,96490.86
2019-03-20T01:03:48.616Z,96486.73
2019-03-20T01:06:18.529Z,96479.47
2019-03-20T01:08:48.506Z,96486.96
2019-03-20T01:11:18.510Z,96477.39
2019-03-20T01:13:48.471Z,96482.02
2019-03-20T01:16:18.371Z,96485.48
2019-03-20T01:18:48.498Z,96488.45
2019-03-20T01:21:18.480Z,96482.87
2019-03-20T01:23:48.467Z,96488.41
2019-03-20T01:26:18.457Z,96483.86
2019-03-20T01:28:48.392Z,96490.22
2019-03-20T01:31:18.316Z,96485.29
2019-03-20T01:33:48.323Z,96484.09
2019-03-20T01:36:18.248Z,96482.92
2019-03-20T01:38:48.080Z,96488.45
2019-03-20T01:41:18.202Z,96488.91
2019-03-20T01:43:48.040Z,96486.02
2019-03-20T01:46:18.028Z,96484.88
2019-03-20T01:48:47.954Z,96474.13
2019-03-20T01:51:22.006Z,96482.71
2019-03-20T01:53:51.932Z,96477.02
2019-03-20T01:56:21.764Z,96475.75
2019-03-20T01:58:51.589Z,96470.45
2019-03-20T02:01:21.433Z,96476.02
2019-03-20T02:03:51.437Z,96480.16
2019-03-20T02:06:21.293Z,96483.02
2019-03-20T02:08:52.248Z,96471.91
2019-03-20T02:11:22.172Z,96475.02
2019-03-20T02:13:52.053Z,96470.41
2019-03-20T02:16:21.918Z,96475.77
2019-03-20T02:18:51.785Z,96472.75
2019-03-20T02:21:21.826Z,96472.34
2019-03-20T02:23:51.696Z,96470.55
2019-03-20T02:26:21.629Z,96470.32
2019-03-20T02:28:51.515Z,96472.09
2019-03-20T02:31:21.525Z,96472.45
2019-03-20T02:33:51.359Z,96475.89
2019-03-20T02:36:21.357Z,96473.28
2019-03-20T02:38:51.160Z,96471.49
2019-03-20T02:41:21.097Z,96466.05
2019-03-20T02:43:51.010Z,96460.11
2019-03-20T02:46:20.885Z,96466.77
2019-03-20T02:48:50.744Z,96472.31
2019-03-20T02:51:20.579Z,96465.14
2019-03-20T02:53:50.524Z,96458.34
2019-03-20T02:56:20.553Z,96458.16
2019-03-20T02:58:50.470Z,96453.27
2019-03-20T03:01:20.380Z,96451.09
2019-03-20T03:03:50.268Z,96456.09
2019-03-20T03:06:20.165Z,96449.86
2019-03-20T03:08:51.004Z,96447.34
2019-03-20T03:11:20.845Z,96444.23
2019-03-20T03:13:50.761Z,96450.80
2019-03-20T03:16:20.695Z,96461.12
2019-03-20T03:18:50.700Z,96459.24
2019-03-20T03:21:20.514Z,96458.98
2019-03-20T03:23:50.337Z,96462.28
2019-03-20T03:26:21.220Z,96464.14
2019-03-20T03:28:51.139Z,96470.73
2019-03-20T03:31:20.986Z,96470.14
2019-03-20T03:33:50.904Z,96473.83
2019-03-20T03:36:21.958Z,96477.40
2019-03-20T03:38:51.957Z,96471.97
2019-03-20T03:41:22.870Z,96479.68
2019-03-20T03:43:52.789Z,96472.20
2019-03-20T03:46:22.802Z,96476.56
2019-03-20T03:48:53.730Z,96477.05
2019-03-20T03:51:26.338Z,96479.14
2019-03-20T03:53:56.160Z,96483.51
2019-03-20T03:56:26.223Z,96492.47
2019-03-20T03:58:56.226Z,96487.15
2019-03-20T04:01:26.113Z,96482.55
2019-03-20T04:03:56.099Z,96483.83
2019-03-20T04:06:35.345Z,96491.33
2019-03-20T04:08:57.600Z,96486.26
2019-03-20T04:11:27.516Z,96490.19
2019-03-20T04:13:57.481Z,96494.66
2019-03-20T04:16:27.403Z,96501.94
2019-03-20T04:18:57.240Z,96501.60
2019-03-20T04:21:27.156Z,96505.72
2019-03-20T04:23:57.060Z,96501.78
2019-03-20T04:26:26.976Z,96506.83
2019-03-20T04:28:56.899Z,96502.23
2019-03-20T04:31:26.979Z,96500.19
2019-03-20T04:33:57.813Z,96499.84
2019-03-20T04:36:27.821Z,96503.44
2019-03-20T04:38:57.740Z,96505.27
2019-03-20T04:41:27.584Z,96503.39
2019-03-20T04:43:57.403Z,96504.57
2019-03-20T04:46:27.313Z,96511.05
2019-03-20T04:48:57.124Z,96509.08
2019-03-20T04:51:26.950Z,96517.30
2019-03-20T04:53:56.779Z,96517.03
2019-03-20T04:56:26.895Z,96519.48
2019-03-20T04:58:56.806Z,96520.88
2019-03-20T05:01:26.639Z,96529.52
2019-03-20T05:03:56.507Z,96530.11
2019-03-20T05:06:26.403Z,96523.83
2019-03-20T05:08:56.304Z,96530.70
2019-03-20T05:11:26.111Z,96535.95
2019-03-20T05:13:55.962Z,96539.67
2019-03-20T05:16:25.863Z,96548.58
2019-03-20T05:18:55.925Z,96546.34
2019-03-20T05:21:25.760Z,96547.47
2019-03-20T05:23:55.588Z,96554.59
2019-03-20T05:26:25.472Z,96552.24
2019-03-20T05:28:55.360Z,96562.34
2019-03-20T05:31:25.243Z,96570.70
2019-03-20T05:33:55.147Z,96569.11
2019-03-20T05:36:24.996Z,96576.53
2019-03-20T05:38:54.836Z,96574.17
2019-03-20T05:41:24.736Z,96577.38
2019-03-20T05:43:54.558Z,96575.54
2019-03-20T05:46:24.371Z,96576.39
2019-03-20T05:48:54.324Z,96579.27
2019-03-20T05:51:24.260Z,96583.03
2019-03-20T05:53:54.088Z,96582.92
2019-03-20T05:56:23.922Z,96591.33
2019-03-20T05:58:54.183Z,96587.39
2019-03-20T06:01:24.015Z,96585.77
2019-03-20T06:03:53.848Z,96586.96
2019-03-20T06:06:23.764Z,96595.64
2019-03-20T06:08:53.636Z,96604.13
2019-03-20T06:11:29.123Z,96609.63
2019-03-20T06:14:00.796Z,96608.16
2019-03-20T06:16:30.697Z,96607.70
2019-03-20T06:19:00.543Z,96609.81
2019-03-20T06:21:30.618Z,96611.28
2019-03-20T06:24:00.736Z,96609.52
2019-03-20T06:26:30.812Z,96615.48
2019-03-20T06:29:00.897Z,96618.52
2019-03-20T06:31:30.746Z,96617.42
2019-03-20T06:34:00.843Z,96617.77
2019-03-20T06:36:30.739Z,96624.39
2019-03-20T06:39:00.572Z,96628.97
2019-03-20T06:41:30.515Z,96629.69
2019-03-20T06:44:00.337Z,96629.78
2019-03-20T06:46:30.165Z,96637.45
2019-03-20T06:49:01.109Z,96633.28
2019-03-20T06:51:31.104Z,96633.07
2019-03-20T06:54:00.953Z,96635.78
2019-03-20T06:56:30.771Z,96640.27
2019-03-20T06:59:50.381Z,96633.48
2019-03-20T07:02:21.479Z,96637.00
2019-03-20T07:05:16.803Z,96644.98
2019-03-20T07:07:46.545Z,96644.56
2019-03-20T07:10:28.894Z,96649.80
2019-03-20T07:12:58.796Z,96651.32
2019-03-20T07:15:28.735Z,96661.98
2019-03-20T07:17:59.705Z,96655.99
2019-03-20T07:20:29.510Z,96665.45
2019-03-20T07:22:59.414Z,96653.25
2019-03-20T07:25:29.318Z,96653.33
2019-03-20T07:27:59.428Z,96647.52
2019-03-20T07:30:29.389Z,96647.45
2019-03-20T07:32:59.207Z,96658.31
2019-03-20T07:35:29.214Z,96654.62
2019-03-20T07:37:59.052Z,96658.25
2019-03-20T07:40:28.875Z,96661.95
2019-03-20T07:43:08.145Z,96660.20
2019-03-20T07:45:30.449Z,96666.80
2019-03-20T07:48:00.290Z,96665.13
2019-03-20T07:50:30.210Z,96661.98
2019-03-20T07:53:00.181Z,96663.22
2019-03-20T07:55:30.165Z,96666.61
2019-03-20T07:58:00.011Z,96661.81
2019-03-20T08:00:29.861Z,96652.53
2019-03-20T08:02:59.748Z,96658.70
2019-03-20T08:05:29.784Z,96660.56
2019-03-20T08:08:07.129Z,96663.75
2019-03-20T08:10:31.325Z,96666.11
2019-03-20T08:13:01.152Z,96671.91
2019-03-20T08:15:31.051Z,96669.14
2019-03-20T08:18:00.953Z,96676.77
2019-03-20T08:20:31.825Z,96671.77
2019-03-20T08:23:01.817Z,96665.89
2019-03-20T08:25:31.650Z,96666.45
2019-03-20T08:28:01.644Z,96671.95
2019-03-20T08:30:31.605Z,96672.72
2019-03-20T08:33:01.456Z,96675.59
2019-03-20T08:35:31.545Z,96676.02
2019-03-20T08:38:01.492Z,96677.36
2019-03-20T08:40:31.391Z,96670.94
2019-03-20T08:43:01.305Z,96677.56
2019-03-20T08:45:31.212Z,96675.36
2019-03-20T08:48:01.037Z,96671.44
2019-03-20T08:50:31.927Z,96676.95
2019-03-20T08:53:01.758Z,96679.47
2019-03-20T08:55:31.587Z,96678.47
2019-03-20T08:58:01.483Z,96670.41
2019-03-20T09:00:31.794Z,96684.08
2019-03-20T09:03:01.718Z,96686.08
2019-03-20T09:05:31.540Z,96680.83
2019-03-20T09:08:01.521Z,96679.73
2019-03-20T09:10:31.411Z,96684.20
2019-03-20T09:13:01.272Z,96682.32
2019-03-20T09:15:31.151Z,96684.52
2019-03-20T09:18:00.982Z,96686.16
2019-03-20T09:20:30.804Z,96689.92
2019-03-20T09:23:00.633Z,96694.17
2019-03-20T09:25:30.531Z,96696.58
2019-03-20T09:28:00.474Z,96691.16
2019-03-20T09:30:30.378Z,96690.61
2019-03-20T09:33:00.194Z,96693.95
2019-03-20T09:35:30.175Z,96680.13
2019-03-20T09:38:00.115Z,96691.02
2019-03-20T09:40:30.117Z,96689.83
2019-03-20T09:42:59.981Z,96681.27
2019-03-20T09:45:29.884Z,96682.68
2019-03-20T09:47:59.813Z,96683.93
2019-03-20T09:50:29.843Z,96694.00
2019-03-20T09:52:59.679Z,96688.55
2019-03-20T09:55:29.582Z,96686.49
2019-03-20T09:57:59.498Z,96683.31
2019-03-20T10:00:29.495Z,96683.20
2019-03-20T10:02:59.434Z,96685.09
2019-03-20T10:05:29.248Z,96692.18
2019-03-20T10:07:59.237Z,96691.05
2019-03-20T10:10:29.156Z,96691.03
2019-03-20T10:12:59.178Z,96684.32
2019-03-20T10:15:29.268Z,96685.09
2019-03-20T10:17:59.593Z,96681.88
2019-03-20T10:20:29.450Z,96683.27
2019-03-20T10:22:59.359Z,96694.89
2019-03-20T10:25:29.339Z,96687.49
2019-03-20T10:27:59.180Z,96689.56
2019-03-20T10:30:29.211Z,96693.23
2019-03-20T10:32:59.037Z,96694.47
2019-03-20T10:35:28.874Z,96699.91
2019-03-20T10:37:58.707Z,96693.30
2019-03-20T10:40:28.900Z,96693.78
2019-03-20T10:42:58.804Z,96698.97
2019-03-20T10:45:28.663Z,96703.66
2019-03-20T10:47:58.568Z,96709.42
2019-03-20T10:50:28.492Z,96712.00
2019-03-20T10:52:58.390Z,96703.78
2019-03-20T10:55:28.293Z,96708.14
2019-03-20T10:57:58.141Z,96704.98
2019-03-20T11:00:28.115Z,96705.96
2019-03-20T11:02:58.155Z,96701.56
2019-03-20T11:05:28.165Z,96697.88
2019-03-20T11:07:58.091Z,96697.22
2019-03-20T11:10:28.057Z,96699.17
2019-03-20T11:12:58.149Z,96699.47
2019-03-20T11:15:29.673Z,96702.02
2019-03-20T11:17:59.858Z,96700.53
2019-03-20T11:20:29.692Z,96701.55
2019-03-20T11:22:59.607Z,96713.35
2019-03-20T11:25:29.826Z,96718.28
2019-03-20T11:27:59.808Z,96711.61
2019-03-20T11:30:29.809Z,96708.50
2019-03-20T11:32:59.806Z,96704.20
2019-03-20T11:35:29.794Z,96702.92
2019-03-20T11:37:59.921Z,96705.14
2019-03-20T11:40:30.321Z,96710.44
2019-03-20T11:43:00.222Z,96705.09
2019-03-20T11:45:30.247Z,96701.17
2019-03-20T11:48:00.231Z,96699.24
2019-03-20T11:50:35.427Z,96699.06
2019-03-20T11:53:05.983Z,96694.20
2019-03-20T11:55:36.256Z,96700.57
2019-03-20T11:58:06.636Z,96699.30
2019-03-20T12:00:36.789Z,96693.67
2019-03-20T12:03:06.764Z,96689.38
2019-03-20T12:05:36.801Z,96686.00
2019-03-20T12:08:08.398Z,96692.91
2019-03-20T12:10:38.281Z,96694.33
2019-03-20T12:13:08.095Z,96693.10
2019-03-20T12:15:38.140Z,96695.10
2019-03-20T12:18:08.035Z,96690.75
2019-03-20T12:20:37.903Z,96688.94
2019-03-20T12:23:07.885Z,96686.77
2019-03-20T12:25:37.838Z,96689.18
2019-03-20T12:28:07.812Z,96689.94
2019-03-20T12:30:37.988Z,96678.32
2019-03-20T12:33:08.269Z,96680.27
2019-03-20T12:35:38.259Z,96682.05
2019-03-20T12:38:14.720Z,96674.92
2019-03-20T12:40:40.227Z,96673.78
2019-03-20T12:43:10.137Z,96670.20
2019-03-20T12:45:40.231Z,96670.77
2019-03-20T12:48:10.170Z,96666.75
2019-03-20T12:50:40.307Z,96671.66
2019-03-20T12:53:12.777Z,96664.03
2019-03-20T12:55:42.692Z,96665.00
2019-03-20T12:58:12.648Z,96666.57
2019-03-20T13:00:42.577Z,96668.35
2019-03-20T13:05:43.519Z,96663.75
2019-03-20T13:08:13.425Z,96667.61
2019-03-20T13:10:43.398Z,96659.08
2019-03-20T13:13:14.471Z,96652.66
2019-03-20T13:15:44.413Z,96651.84
2019-03-20T13:18:15.308Z,96653.95
2019-03-20T13:20:45.227Z,96644.62
2019-03-20T13:23:16.980Z,96640.44
2019-03-20T13:25:47.035Z,96647.37
2019-03-20T13:28:17.028Z,96640.98
2019-03-20T13:30:55.913Z,96636.83
2019-03-20T13:33:26.401Z,96639.84
2019-03-20T13:35:56.362Z,96636.98
2019-03-20T13:38:26.308Z,96643.27
2019-03-20T13:40:56.202Z,96639.58
2019-03-20T13:43:26.098Z,96626.66
2019-03-20T13:45:55.933Z,96633.15
2019-03-20T13:48:25.882Z,96633.95
2019-03-20T13:50:55.850Z,96626.58
2019-03-20T13:53:25.814Z,96630.83
2019-03-20T13:55:55.768Z,96632.21
2019-03-20T13:58:25.771Z,96629.59
2019-03-20T14:00:56.846Z,96639.99
2019-03-20T14:03:26.738Z,96640.73
2019-03-20T14:05:56.773Z,96640.23
2019-03-20T14:08:26.669Z,96629.28
2019-03-20T14:10:56.611Z,96635.08
2019-03-20T14:13:26.632Z,96635.39
2019-03-20T14:15:56.479Z,96631.33
2019-03-20T14:18:26.351Z,96631.48
2019-03-20T14:20:56.196Z,96630.76
2019-03-20T14:23:26.052Z,96623.44
2019-03-20T14:25:56.070Z,96620.98
2019-03-20T14:28:27.014Z,96624.97
2019-03-20T14:30:56.997Z,96622.02
2019-03-20T14:33:26.865Z,96617.24
2019-03-20T14:35:56.782Z,96612.13
2019-03-20T14:38:26.726Z,96609.15
2019-03-20T14:40:56.658Z,96614.08
2019-03-20T14:43:26.582Z,96612.22
2019-03-20T14:45:56.500Z,96616.61
2019-03-20T14:48:26.464Z,96615.30
2019-03-20T14:50:56.447Z,96617.63
2019-03-20T14:53:26.333Z,96615.78
2019-03-20T14:55:56.175Z,96613.37
2019-03-20T14:58:26.183Z,96602.09
2019-03-20T15:00:56.073Z,96608.25
2019-03-20T15:03:26.004Z,96605.79
2019-03-20T15:05:55.985Z,96603.21
2019-03-20T15:08:25.856Z,96598.68
2019-03-20T15:10:55.834Z,96601.67
2019-03-20T15:13:25.789Z,96597.73
2019-03-20T15:15:59.255Z,96603.23
2019-03-20T15:18:29.316Z,96594.84
2019-03-20T15:20:59.239Z,96594.75
2019-03-20T15:23:29.105Z,96596.25
2019-03-20T15:25:59.014Z,96591.78
2019-03-20T15:28:28.956Z,96595.20
2019-03-20T15:30:59.847Z,96595.98
2019-03-20T15:33:29.692Z,96594.56
2019-03-20T15:35:59.583Z,96593.33
2019-03-20T15:38:29.471Z,96596.44
2019-03-20T15:40:59.400Z,96603.42
2019-03-20T15:43:29.286Z,96594.84
2019-03-20T15:45:59.118Z,96594.98
2019-03-20T15:48:30.066Z,96595.41
2019-03-20T15:51:00.015Z,96591.44
2019-03-20T15:53:30.043Z,96596.00
2019-03-20T15:55:59.926Z,96587.80
2019-03-20T15:58:29.898Z,96585.53
2019-03-20T16:00:59.893Z,96583.95
2019-03-20T16:03:31.066Z,96589.99
2019-03-20T16:06:00.982Z,96590.59
2019-03-20T16:08:31.982Z,96588.47
2019-03-20T16:11:06.658Z,96595.48
2019-03-20T16:13:33.505Z,96594.19
2019-03-20T16:16:03.484Z,96596.09
2019-03-20T16:18:34.526Z,96603.35
2019-03-20T16:21:04.512Z,96606.16
2019-03-20T16:23:34.923Z,96600.77
2019-03-20T16:26:04.907Z,96602.84
2019-03-20T16:28:34.790Z,96610.47
2019-03-20T16:31:04.750Z,96606.85
2019-03-20T16:33:34.618Z,96607.12
2019-03-20T16:36:04.605Z,96607.37
2019-03-20T16:38:34.533Z,96606.15
2019-03-20T16:41:04.470Z,96604.34
2019-03-20T16:43:34.482Z,96612.73
2019-03-20T16:46:04.501Z,96620.39
2019-03-20T16:48:34.351Z,96625.20
2019-03-20T16:51:04.551Z,96626.83
2019-03-20T16:53:34.568Z,96637.22
2019-03-20T16:56:04.532Z,96635.66
2019-03-20T16:58:34.512Z,96632.32
2019-03-20T17:01:04.589Z,96626.05
2019-03-20T17:03:34.607Z,96636.66
2019-03-20T17:06:04.620Z,96636.63
2019-03-20T17:08:34.578Z,96643.20
2019-03-20T17:11:04.938Z,96642.31
2019-03-20T17:13:34.810Z,96639.70
2019-03-20T17:16:06.351Z,96643.84
2019-03-20T17:18:36.186Z,96657.87
2019-03-20T17:21:06.150Z,96668.86
2019-03-20T17:23:36.010Z,96661.11
2019-03-20T17:26:05.992Z,96658.83
2019-03-20T17:28:35.988Z,96665.97
2019-03-20T17:31:06.100Z,96672.52
2019-03-20T17:33:35.962Z,96675.97
2019-03-20T17:36:06.004Z,96685.89
2019-03-20T17:38:36.027Z,96684.78
2019-03-20T17:41:05.988Z,96694.01
2019-03-20T17:43:35.950Z,96688.92
2019-03-20T17:46:06.020Z,96686.50
2019-03-20T17:48:35.965Z,96687.63
2019-03-20T17:51:06.004Z,96680.83
2019-03-20T17:53:36.943Z,96684.92
2019-03-20T17:56:06.901Z,96687.28
2019-03-20T17:58:36.803Z,96681.89
2019-03-20T18:01:06.710Z,96689.48
2019-03-20T18:03:36.571Z,96699.17
2019-03-20T18:06:06.531Z,96692.22
2019-03-20T18:08:36.435Z,96698.44
2019-03-20T18:11:06.318Z,96698.48
2019-03-20T18:13:36.254Z,96701.88
2019-03-20T18:16:06.293Z,96701.73
2019-03-20T18:18:36.231Z,96705.34
2019-03-20T18:21:06.202Z,96699.55
2019-03-20T18:23:36.080Z,96698.89
2019-03-20T18:26:05.979Z,96694.86
2019-03-20T18:28:35.944Z,96703.51
2019-03-20T18:31:06.951Z,96703.71
2019-03-20T18:33:36.975Z,96705.30
2019-03-20T18:36:06.886Z,96708.31
2019-03-20T18:38:36.891Z,96712.68
2019-03-20T18:41:07.039Z,96718.20
2019-03-20T18:43:36.919Z,96717.67
2019-03-20T18:46:06.821Z,96726.16
2019-03-20T18:48:36.670Z,96734.84
2019-03-20T18:51:06.673Z,96732.56
2019-03-20T18:53:37.665Z,96737.44
2019-03-20T18:56:07.585Z,96745.23
2019-03-20T18:58:37.565Z,96735.91
2019-03-20T19:01:07.481Z,96740.06
2019-03-20T19:03:39.373Z,96737.47
2019-03-20T19:06:14.357Z,96738.91
2019-03-20T19:08:47.305Z,96730.30
2019-03-20T19:11:17.196Z,96733.23
2019-03-20T19:13:47.169Z,96731.48
2019-03-20T19:16:18.111Z,96739.56
2019-03-20T19:18:48.037Z,96745.87
2019-03-20T19:21:18.002Z,96746.41
2019-03-20T19:23:47.817Z,96747.56
2019-03-20T19:26:17.708Z,96740.92
2019-03-20T19:28:47.616Z,96739.40
2019-03-20T19:31:17.442Z,96739.83
2019-03-20T19:33:47.341Z,96741.28
2019-03-20T19:36:17.249Z,96751.54
2019-03-20T19:38:47.097Z,96741.59
2019-03-20T19:41:16.933Z,96739.73
2019-03-20T19:43:46.785Z,96740.78
2019-03-20T19:46:16.660Z,96738.98
2019-03-20T19:48:46.496Z,96748.49
2019-03-20T19:51:16.327Z,96744.99
2019-03-20T19:53:46.232Z,96751.52
2019-03-20T19:56:16.151Z,96745.92
2019-03-20T19:58:52.921Z,96747.08
2019-03-20T20:01:22.875Z,96756.38
2019-03-20T20:03:52.984Z,96754.80
2019-03-20T20:06:22.902Z,96753.25
2019-03-20T20:08:53.024Z,96761.67
2019-03-20T20:11:22.913Z,96768.08
2019-03-20T20:13:52.755Z,96760.38
2019-03-20T20:16:22.587Z,96758.17
2019-03-20T20:18:52.489Z,96755.61
2019-03-20T20:21:22.382Z,96756.16
2019-03-20T20:23:52.199Z,96754.80
2019-03-20T20:26:22.033Z,96762.43
2019-03-20T20:28:52.035Z,96762.06
2019-03-20T20:31:21.862Z,96758.97
2019-03-20T20:33:51.706Z,96774.97
2019-03-20T20:36:22.604Z,96777.12
2019-03-20T20:38:52.505Z,96774.81
2019-03-20T20:41:22.404Z,96773.81
2019-03-20T20:43:53.292Z,96780.86
2019-03-20T20:46:23.119Z,96772.66
2019-03-20T20:48:52.972Z,96771.39
2019-03-20T20:51:22.799Z,96774.42
2019-03-20T20:53:52.699Z,96785.03
2019-03-20T20:56:22.828Z,96781.22
2019-03-20T20:58:52.758Z,96775.56
2019-03-20T21:01:22.657Z,96783.18
2019-03-20T21:03:52.667Z,96788.83
2019-03-20T21:06:22.669Z,96789.42
2019-03-20T21:08:52.589Z,96791.95
2019-03-20T21:11:22.730Z,96800.35
2019-03-20T21:13:52.647Z,96800.55
2019-03-20T21:16:23.077Z,96793.14
2019-03-20T21:19:34.190Z,96793.84
2019-03-20T21:22:42.380Z,96792.11
2019-03-20T21:25:13.824Z,96787.17
2019-03-20T21:28:28.895Z,96795.11
2019-03-20T21:31:32.215Z,96795.92
2019-03-20T21:34:37.503Z,96798.50
2019-03-20T21:37:46.274Z,96790.79
2019-03-20T21:40:18.327Z,96791.93
2019-03-20T21:43:32.703Z,96793.23
2019-03-20T21:46:28.209Z,96787.45
2019-03-20T21:48:58.718Z,96785.34
2019-03-20T21:51:29.227Z,96779.66
2019-03-20T21:54:37.577Z,96782.89
2019-03-20T21:57:47.412Z,96776.80
2019-03-20T22:01:19.751Z,96777.02
2019-03-20T22:03:50.330Z,96779.37
2019-03-20T22:06:57.410Z,96781.91
2019-03-20T22:10:14.646Z,96783.73
2019-03-20T22:13:18.489Z,96785.33
2019-03-20T22:16:23.866Z,96777.23
2019-03-20T22:19:40.643Z,96770.10
2019-03-20T22:22:51.952Z,96777.58
2019-03-20T22:26:00.046Z,96773.89
2019-03-20T22:29:14.665Z,96776.30
2019-03-20T22:31:51.129Z,96775.20
2019-03-20T22:34:40.490Z,96773.12
2019-03-20T22:37:10.975Z,96764.63
2019-03-20T22:40:34.049Z,96760.64
2019-03-20T22:43:29.744Z,96758.16
2019-03-20T22:46:34.157Z,96753.73
2019-03-20T22:49:35.647Z,96754.35
2019-03-20T22:52:51.188Z,96755.03
2019-03-20T22:55:32.073Z,96755.84
2019-03-20T22:58:48.969Z,96753.42
2019-03-20T23:01:36.391Z,96746.09
2019-03-20T23:04:12.360Z,96745.66
2019-03-20T23:06:42.873Z,96744.98
2019-03-20T23:09:13.414Z,96750.58
2019-03-20T23:11:43.914Z,96751.30
2019-03-20T23:14:14.850Z,96752.34
2019-03-20T23:16:45.346Z,96749.55
2019-03-20T23:19:15.769Z,96748.84
2019-03-20T23:21:46.240Z,96739.24
2019-03-20T23:24:16.737Z,96753.69
2019-03-20T23:26:47.287Z,96752.36
2019-03-20T23:29:17.823Z,96751.20
2019-03-20T23:31:48.250Z,96744.58
2019-03-20T23:34:18.686Z,96742.50
2019-03-20T23:36:49.111Z,96741.25
2019-03-20T23:39:19.523Z,96750.72
2019-03-20T23:41:50.071Z,96737.53
2019-03-20T23:44:20.522Z,96738.94
2019-03-20T23:46:51.118Z,96746.51
2019-03-20T23:49:22.883Z,96735.06
2019-03-20T23:51:53.495Z,96733.55
2019-03-20T23:54:28.046Z,96738.72
2019-03-20T23:56:58.383Z,96739.00
2019-03-20T23:59:28.837Z,96741.55
